Time;durP1;ratioP1;P1;durP2;ratioP2;P2;SDS_P1;SDS_P2;PMS_P1;PMS_P2;Temp;Humidity;BMP_temperature;BMP_pressure;BME280_temperature;BME280_humidity;BME280_pressure;Samples;Min_cycle;Max_cycle;Signal;HPM_P1;HPM_P2
2022/07/13 00:02:22;;;;;;;6.78;5.43;;;23.90;72.30;;;;;;5000685;28;20471;-75
2022/07/13 00:04:48;;;;;;;8.93;6.63;;;23.70;74.70;;;;;;5029338;28;20502;-75
2022/07/13 00:07:14;;;;;;;7.68;5.95;;;23.70;76.00;;;;;;5018486;28;20026;-76
2022/07/13 00:09:39;;;;;;;6.07;5.03;;;23.60;76.60;;;;;;5009915;28;20076;-76
2022/07/13 00:12:05;;;;;;;10.57;7.53;;;23.50;76.90;;;;;;5004183;28;20045;-76
2022/07/13 00:14:31;;;;;;;9.75;7.30;;;23.50;77.20;;;;;;5009936;28;20065;-76
2022/07/13 00:16:57;;;;;;;8.57;6.65;;;23.40;77.70;;;;;;5012180;28;20057;-76
2022/07/13 00:19:22;;;;;;;9.70;7.30;;;23.40;77.80;;;;;;4994581;28;20133;-76
2022/07/13 00:21:48;;;;;;;9.57;6.57;;;23.40;78.10;;;;;;5020049;28;20033;-76
2022/07/13 00:24:14;;;;;;;9.70;5.38;;;23.40;78.10;;;;;;5014867;28;20025;-76
2022/07/13 00:26:40;;;;;;;11.10;6.65;;;23.40;78.30;;;;;;5019672;28;20014;-77
2022/07/13 00:29:06;;;;;;;9.85;6.70;;;23.40;78.70;;;;;;5018528;28;20071;-76
2022/07/13 00:31:31;;;;;;;7.68;5.53;;;23.40;78.60;;;;;;5011834;28;20393;-76
2022/07/13 00:33:57;;;;;;;7.63;5.88;;;23.40;77.10;;;;;;5018732;28;20507;-76
2022/07/13 00:36:23;;;;;;;9.00;6.82;;;23.40;77.50;;;;;;5012538;28;20439;-76
2022/07/13 00:38:49;;;;;;;5.05;3.47;;;23.40;77.70;;;;;;5020435;28;20503;-77
2022/07/13 00:41:14;;;;;;;10.52;6.78;;;23.30;76.10;;;;;;5025772;28;20198;-76
2022/07/13 00:43:40;;;;;;;7.38;5.93;;;23.30;77.40;;;;;;5017938;28;20764;-76
2022/07/13 00:46:06;;;;;;;9.45;5.85;;;23.30;77.60;;;;;;5029249;28;20102;-76
2022/07/13 00:48:33;;;;;;;9.48;7.20;;;23.30;78.10;;;;;;5016497;28;20029;-76
2022/07/13 00:50:59;;;;;;;8.40;6.10;;;23.30;78.60;;;;;;5028995;28;20052;-76
2022/07/13 00:53:25;;;;;;;6.85;5.47;;;23.30;78.70;;;;;;5023006;28;20127;-77
2022/07/13 00:55:51;;;;;;;9.10;6.18;;;23.30;78.90;;;;;;5026052;28;20040;-76
2022/07/13 00:58:17;;;;;;;10.40;6.72;;;23.30;78.50;;;;;;5018231;28;20030;-76
2022/07/13 01:00:43;;;;;;;9.48;6.50;;;23.20;78.50;;;;;;5009161;28;20030;-76
2022/07/13 01:03:09;;;;;;;8.70;6.82;;;23.20;78.90;;;;;;5016477;28;20109;-76
2022/07/13 01:05:34;;;;;;;10.60;7.30;;;23.20;79.30;;;;;;5013696;28;20129;-76
2022/07/13 01:08:04;;;;;;;10.77;7.97;;;23.20;79.70;;;;;;5021873;28;20022;-77
2022/07/13 01:10:30;;;;;;;9.48;6.50;;;23.20;80.40;;;;;;5026683;28;20111;-76
2022/07/13 01:12:56;;;;;;;10.63;7.53;;;23.20;80.20;;;;;;5025682;28;20672;-76
2022/07/13 01:15:22;;;;;;;8.25;7.07;;;23.20;80.00;;;;;;5018841;28;20029;-77
2022/07/13 01:17:48;;;;;;;7.97;6.40;;;23.20;80.60;;;;;;5025694;28;20364;-76
2022/07/13 01:20:17;;;;;;;8.95;7.10;;;23.10;80.50;;;;;;5018340;28;20033;-76
2022/07/13 01:22:45;;;;;;;9.43;6.82;;;23.20;80.40;;;;;;5026865;28;20091;-77
2022/07/13 01:25:12;;;;;;;8.55;7.47;;;23.10;80.20;;;;;;5015416;28;20022;-77
2022/07/13 01:27:39;;;;;;;8.95;7.25;;;23.20;80.10;;;;;;5008608;28;20040;-75
2022/07/13 01:30:06;;;;;;;10.60;7.30;;;23.20;80.20;;;;;;5016232;28;20116;-75
2022/07/13 01:32:50;;;;;;;9.05;6.93;;;23.10;80.50;;;;;;5028271;28;20041;-76
2022/07/13 01:35:17;;;;;;;8.23;6.20;;;23.20;80.80;;;;;;5015639;28;20029;-76
2022/07/13 01:37:44;;;;;;;9.73;6.95;;;23.20;80.80;;;;;;5021499;28;20084;-75
2022/07/13 01:40:10;;;;;;;9.32;6.80;;;23.10;80.70;;;;;;5023752;28;20077;-76
2022/07/13 01:42:44;;;;;;;8.57;7.00;;;23.10;80.60;;;;;;5013028;28;20018;-76
2022/07/13 01:45:10;;;;;;;9.27;7.15;;;23.00;80.80;;;;;;5024818;28;20029;-76
2022/07/13 01:47:42;;;;;;;8.20;6.10;;;23.10;81.10;;;;;;4994177;28;20116;-76
2022/07/13 01:50:09;;;;;;;10.35;6.18;;;23.10;81.00;;;;;;5023532;28;20109;-75
2022/07/13 01:52:35;;;;;;;7.63;5.78;;;23.10;80.50;;;;;;5013430;28;20026;-77
2022/07/13 01:55:05;;;;;;;7.43;5.45;;;23.10;80.50;;;;;;5015559;28;20029;-76
2022/07/13 01:57:32;;;;;;;7.78;5.22;;;23.00;80.50;;;;;;5029360;28;20463;-77
2022/07/13 02:00:17;;;;;;;7.65;4.80;;;23.00;80.40;;;;;;5011169;28;20044;-77
2022/07/13 02:02:43;;;;;;;7.47;5.40;;;23.00;80.70;;;;;;4997090;28;20133;-77
2022/07/13 02:05:12;;;;;;;7.32;5.45;;;23.00;81.10;;;;;;5018858;28;20025;-77
2022/07/13 02:07:38;;;;;;;6.68;5.13;;;23.00;81.40;;;;;;4999553;28;20148;-77
2022/07/13 02:10:05;;;;;;;8.18;5.47;;;23.00;80.80;;;;;;5022638;28;20018;-77
2022/07/13 02:12:32;;;;;;;9.05;6.13;;;23.00;80.80;;;;;;5024462;28;20486;-76
2022/07/13 02:14:57;;;;;;;7.43;5.60;;;23.00;81.50;;;;;;5028710;28;20052;-77
2022/07/13 02:17:23;;;;;;;7.05;4.53;;;23.00;80.90;;;;;;5021666;28;20573;-77
2022/07/13 02:19:49;;;;;;;7.20;5.00;;;23.00;80.50;;;;;;5017573;28;20048;-77
2022/07/13 02:22:14;;;;;;;6.95;5.05;;;23.00;79.70;;;;;;5031009;28;20029;-76
2022/07/13 02:24:40;;;;;;;7.80;5.20;;;23.00;79.60;;;;;;5029712;28;20064;-76
2022/07/13 02:27:06;;;;;;;6.07;4.20;;;23.00;79.40;;;;;;5001833;28;20104;-76
2022/07/13 02:29:31;;;;;;;5.20;3.28;;;23.00;78.60;;;;;;5031194;28;20033;-76
2022/07/13 02:31:57;;;;;;;5.18;3.72;;;23.00;78.40;;;;;;5001879;28;20451;-76
2022/07/13 02:34:27;;;;;;;5.68;3.30;;;23.00;77.70;;;;;;5032537;28;20443;-76
2022/07/13 02:36:56;;;;;;;4.82;3.25;;;23.00;76.80;;;;;;5020669;28;20149;-76
2022/07/13 02:39:22;;;;;;;6.63;4.10;;;23.00;76.30;;;;;;5026727;28;20041;-76
2022/07/13 02:41:49;;;;;;;5.60;3.88;;;23.00;75.80;;;;;;5026497;28;20292;-77
2022/07/13 02:44:15;;;;;;;6.70;4.05;;;23.00;75.80;;;;;;5013351;28;20030;-76
2022/07/13 02:46:40;;;;;;;5.63;4.03;;;23.00;75.70;;;;;;5019898;28;20080;-77
2022/07/13 02:49:06;;;;;;;6.97;4.82;;;23.00;76.60;;;;;;5015803;28;20030;-76
2022/07/13 02:51:31;;;;;;;5.43;3.50;;;23.00;76.80;;;;;;5016454;28;20048;-76
2022/07/13 02:53:57;;;;;;;5.65;4.07;;;23.00;76.90;;;;;;5028041;28;20131;-76
2022/07/13 02:56:23;;;;;;;6.55;3.63;;;23.00;76.10;;;;;;5030574;28;20037;-76
2022/07/13 02:58:48;;;;;;;6.07;3.65;;;23.00;76.00;;;;;;5031367;28;20029;-77
2022/07/13 03:01:14;;;;;;;5.07;3.70;;;23.00;76.10;;;;;;5030461;28;20112;-76
2022/07/13 03:03:39;;;;;;;5.85;3.53;;;23.00;75.70;;;;;;5021604;28;20029;-76
2022/07/13 03:06:05;;;;;;;5.28;3.05;;;23.00;75.60;;;;;;5030480;28;20636;-77
2022/07/13 03:08:31;;;;;;;5.32;3.47;;;23.00;75.90;;;;;;5004479;28;20030;-76
2022/07/13 03:10:57;;;;;;;5.90;3.75;;;23.00;76.10;;;;;;5012541;28;20022;-77
2022/07/13 03:13:23;;;;;;;6.28;3.35;;;23.10;75.70;;;;;;5026832;28;20041;-76
2022/07/13 03:15:48;;;;;;;5.10;3.63;;;23.00;75.00;;;;;;5011135;28;20034;-76
2022/07/13 03:18:14;;;;;;;5.40;3.50;;;23.00;75.00;;;;;;5018034;28;20061;-76
2022/07/13 03:20:40;;;;;;;5.32;3.72;;;23.00;75.00;;;;;;5012763;28;20037;-76
2022/07/13 03:23:05;;;;;;;5.78;3.58;;;23.10;75.20;;;;;;5029833;28;20030;-76
2022/07/13 03:25:33;;;;;;;6.00;3.88;;;23.10;75.10;;;;;;5014216;28;20026;-76
2022/07/13 03:27:59;;;;;;;4.15;2.95;;;23.10;75.50;;;;;;5021096;28;20373;-76
2022/07/13 03:30:25;;;;;;;5.65;3.25;;;23.10;74.40;;;;;;5015846;28;20040;-76
2022/07/13 03:32:51;;;;;;;5.32;3.28;;;23.00;73.80;;;;;;5018331;28;20480;-75
2022/07/13 03:35:17;;;;;;;4.70;2.97;;;23.00;73.10;;;;;;5024504;28;20072;-76
2022/07/13 03:37:44;;;;;;;5.20;3.50;;;23.00;72.50;;;;;;5021056;28;20034;-76
2022/07/13 03:40:10;;;;;;;6.22;3.63;;;23.00;73.10;;;;;;5030729;28;20041;-76
2022/07/13 03:42:39;;;;;;;5.07;3.60;;;23.00;73.60;;;;;;5013340;28;20037;-76
2022/07/13 03:45:06;;;;;;;5.05;3.35;;;23.00;74.60;;;;;;5019779;28;20026;-76
2022/07/13 03:47:31;;;;;;;3.72;2.72;;;23.00;74.70;;;;;;5028823;28;20030;-76
2022/07/13 03:49:58;;;;;;;7.30;3.38;;;23.10;74.00;;;;;;4996365;28;20080;-76
2022/07/13 03:52:23;;;;;;;6.97;3.60;;;23.00;73.60;;;;;;5010650;28;20022;-76
2022/07/13 03:54:49;;;;;;;6.13;3.78;;;23.00;73.10;;;;;;5004890;28;20036;-76
2022/07/13 03:57:14;;;;;;;4.70;2.78;;;23.10;72.90;;;;;;5010537;28;20030;-76
2022/07/13 03:59:45;;;;;;;6.43;3.42;;;23.10;72.60;;;;;;5004501;28;20495;-76
2022/07/13 04:02:11;;;;;;;5.78;2.80;;;23.10;72.50;;;;;;5030329;28;20105;-76
2022/07/13 04:04:36;;;;;;;4.32;3.10;;;23.10;73.20;;;;;;5025019;28;20551;-76
2022/07/13 04:07:02;;;;;;;5.10;3.20;;;23.10;72.80;;;;;;5010454;28;20045;-75
2022/07/13 04:09:27;;;;;;;6.90;3.28;;;23.10;72.50;;;;;;5011483;28;20033;-76
2022/07/13 04:11:53;;;;;;;4.65;3.13;;;23.10;71.80;;;;;;5026169;28;20028;-76
2022/07/13 04:14:19;;;;;;;5.70;3.20;;;23.20;72.50;;;;;;5007574;28;20025;-76
2022/07/13 04:16:44;;;;;;;4.72;3.08;;;23.20;72.80;;;;;;5006059;28;20065;-76
2022/07/13 04:19:10;;;;;;;6.88;3.63;;;23.20;72.30;;;;;;5024256;28;20025;-78
2022/07/13 04:21:36;;;;;;;5.80;3.88;;;23.20;71.60;;;;;;5003130;28;20025;-76
2022/07/13 04:24:01;;;;;;;5.50;2.88;;;23.20;69.90;;;;;;5028756;28;20079;-75
2022/07/13 04:26:27;;;;;;;5.55;2.65;;;23.20;69.40;;;;;;5018279;28;20044;-76
2022/07/13 04:28:52;;;;;;;4.38;2.97;;;23.20;70.00;;;;;;5010394;28;20442;-76
2022/07/13 04:31:18;;;;;;;4.82;3.30;;;23.30;69.80;;;;;;5028817;28;20057;-77
2022/07/13 04:33:44;;;;;;;4.43;2.42;;;23.20;69.40;;;;;;5012344;28;20465;-76
2022/07/13 04:36:09;;;;;;;3.80;2.50;;;23.30;69.40;;;;;;5004639;28;20025;-77
2022/07/13 04:38:35;;;;;;;7.15;3.45;;;23.30;69.50;;;;;;5025771;28;20025;-76
2022/07/13 04:41:01;;;;;;;6.68;3.10;;;23.30;69.60;;;;;;5027656;28;20026;-76
2022/07/13 04:43:27;;;;;;;6.15;4.00;;;23.30;70.20;;;;;;5011326;28;20022;-77
2022/07/13 04:45:53;;;;;;;7.78;3.63;;;23.30;70.60;;;;;;5016059;28;20033;-77
2022/07/13 04:48:18;;;;;;;5.97;3.30;;;23.30;71.40;;;;;;5028477;28;20067;-77
2022/07/13 04:50:44;;;;;;;5.90;3.85;;;23.40;72.00;;;;;;5009725;28;20025;-77
2022/07/13 04:53:09;;;;;;;6.82;3.88;;;23.40;70.20;;;;;;4987783;28;20086;-76
2022/07/13 04:55:38;;;;;;;6.93;4.18;;;23.40;69.80;;;;;;4974056;28;20019;-77
2022/07/13 04:58:05;;;;;;;7.55;3.92;;;23.50;69.70;;;;;;4982478;28;20045;-76
2022/07/13 05:00:31;;;;;;;5.18;3.60;;;23.50;69.10;;;;;;4985072;28;20037;-77
2022/07/13 05:02:57;;;;;;;7.22;3.38;;;23.50;69.40;;;;;;4985737;28;20030;-76
2022/07/13 05:05:23;;;;;;;5.90;4.00;;;23.60;70.10;;;;;;4985740;28;20807;-76
2022/07/13 05:07:48;;;;;;;6.28;3.22;;;23.60;70.40;;;;;;4981060;28;20109;-76
2022/07/13 05:10:14;;;;;;;7.03;4.65;;;23.70;69.70;;;;;;4970492;28;20133;-77
2022/07/13 05:12:41;;;;;;;6.60;3.97;;;23.70;69.50;;;;;;4977354;28;20676;-77
2022/07/13 05:15:10;;;;;;;9.05;3.80;;;23.70;68.20;;;;;;4988128;28;20023;-76
2022/07/13 05:17:37;;;;;;;7.22;4.55;;;23.70;67.90;;;;;;4982676;28;20022;-76
2022/07/13 05:20:04;;;;;;;8.48;5.43;;;23.70;67.70;;;;;;4982977;28;20035;-77
2022/07/13 05:22:30;;;;;;;6.10;4.32;;;23.70;67.10;;;;;;4977302;28;20033;-77
2022/07/13 05:24:56;;;;;;;6.55;4.85;;;23.70;67.10;;;;;;4990256;28;20464;-77
2022/07/13 05:27:22;;;;;;;8.43;4.95;;;23.70;67.60;;;;;;4978707;28;20027;-76
2022/07/13 05:29:50;;;;;;;7.95;4.72;;;23.70;67.60;;;;;;4988149;28;20034;-76
2022/07/13 05:32:16;;;;;;;6.97;5.32;;;23.80;67.70;;;;;;4979891;28;20063;-76
2022/07/13 05:34:42;;;;;;;9.02;5.20;;;23.80;67.50;;;;;;4985229;28;20058;-76
2022/07/13 05:37:07;;;;;;;11.02;5.90;;;23.80;67.60;;;;;;4983165;28;20034;-76
2022/07/13 05:39:33;;;;;;;8.30;5.55;;;23.80;67.50;;;;;;4983623;28;20034;-76
2022/07/13 05:41:58;;;;;;;9.75;6.38;;;23.80;67.70;;;;;;4993173;28;20019;-76
2022/07/13 05:44:26;;;;;;;7.30;5.93;;;23.80;68.10;;;;;;4986268;28;20050;-76
2022/07/13 05:46:54;;;;;;;8.82;5.88;;;23.80;68.20;;;;;;4986905;28;20049;-76
2022/07/13 05:49:20;;;;;;;8.80;6.07;;;23.80;68.40;;;;;;4981422;28;20035;-76
2022/07/13 05:51:46;;;;;;;16.10;8.52;;;23.80;68.70;;;;;;4987453;28;20021;-75
2022/07/13 05:54:11;;;;;;;10.90;8.18;;;23.80;68.40;;;;;;5017660;28;20061;-76
2022/07/13 05:56:39;;;;;;;7.57;5.10;;;23.80;69.30;;;;;;5028727;28;20537;-76
2022/07/13 05:59:05;;;;;;;13.15;9.82;;;23.80;68.00;;;;;;5022754;28;20468;-75
2022/07/13 06:01:31;;;;;;;12.27;8.45;;;23.70;68.20;;;;;;5017558;28;20058;-76
2022/07/13 06:03:58;;;;;;;7.90;4.03;;;23.80;67.90;;;;;;5017038;28;20036;-75
2022/07/13 06:06:24;;;;;;;9.52;5.88;;;23.80;67.30;;;;;;5015404;28;20048;-75
2022/07/13 06:08:50;;;;;;;7.95;4.97;;;23.80;66.80;;;;;;5018069;28;20037;-75
2022/07/13 06:11:15;;;;;;;6.57;3.20;;;23.90;66.90;;;;;;5020678;28;20021;-75
2022/07/13 06:13:41;;;;;;;7.95;4.25;;;23.90;66.40;;;;;;5019593;28;20172;-75
2022/07/13 06:16:07;;;;;;;10.32;4.90;;;24.00;66.30;;;;;;5016123;28;20449;-74
2022/07/13 06:18:33;;;;;;;9.80;7.28;;;24.00;66.90;;;;;;5018751;28;20032;-76
2022/07/13 06:20:58;;;;;;;16.50;10.13;;;24.00;67.10;;;;;;5020586;28;20034;-75
2022/07/13 06:23:24;;;;;;;8.15;5.85;;;24.00;67.80;;;;;;5022414;28;20018;-75
2022/07/13 06:25:50;;;;;;;7.82;5.03;;;24.00;67.40;;;;;;5019592;28;20026;-77
2022/07/13 06:28:15;;;;;;;12.38;9.65;;;24.00;66.80;;;;;;4997563;28;20071;-74
2022/07/13 06:30:41;;;;;;;9.88;7.88;;;24.10;68.10;;;;;;5021802;28;20026;-76
2022/07/13 06:33:07;;;;;;;13.65;10.77;;;24.10;68.40;;;;;;5012287;28;20060;-74
2022/07/13 06:35:33;;;;;;;16.73;11.02;;;24.10;69.00;;;;;;5021589;28;20072;-74
2022/07/13 06:37:58;;;;;;;16.30;8.57;;;24.10;69.00;;;;;;5022080;28;20029;-74
2022/07/13 06:40:24;;;;;;;12.75;8.05;;;24.20;68.90;;;;;;5005661;28;20033;-74
2022/07/13 06:42:50;;;;;;;15.82;10.45;;;24.20;69.00;;;;;;5010732;28;20030;-75
2022/07/13 06:45:16;;;;;;;11.27;8.10;;;24.30;68.50;;;;;;5023379;28;20135;-75
2022/07/13 06:47:43;;;;;;;13.73;9.20;;;24.40;68.00;;;;;;5016086;28;20021;-75
2022/07/13 06:50:12;;;;;;;12.57;9.77;;;24.40;68.10;;;;;;5018304;28;20026;-75
2022/07/13 06:52:40;;;;;;;13.97;9.57;;;24.50;68.00;;;;;;5028025;28;20028;-75
2022/07/13 06:55:07;;;;;;;11.15;9.05;;;24.50;68.20;;;;;;5021521;28;20429;-75
2022/07/13 06:57:33;;;;;;;12.00;10.05;;;24.50;67.50;;;;;;5027090;28;20472;-74
2022/07/13 06:59:58;;;;;;;13.35;9.43;;;24.50;67.50;;;;;;5007683;28;20042;-75
2022/07/13 07:02:24;;;;;;;18.10;8.93;;;24.50;67.80;;;;;;5014204;28;20670;-75
2022/07/13 07:04:51;;;;;;;11.52;8.95;;;24.50;67.50;;;;;;5013933;28;20025;-75
2022/07/13 07:07:16;;;;;;;14.30;9.93;;;24.60;67.30;;;;;;5027023;28;20029;-73
2022/07/13 07:09:42;;;;;;;10.20;7.15;;;24.60;67.20;;;;;;5008684;28;20079;-74
2022/07/13 07:12:08;;;;;;;9.98;7.10;;;24.70;67.10;;;;;;5000250;28;20406;-75
2022/07/13 07:14:34;;;;;;;11.43;6.93;;;24.70;66.80;;;;;;5008011;28;20017;-74
2022/07/13 07:17:02;;;;;;;13.52;9.90;;;24.90;66.00;;;;;;5026622;28;20105;-75
2022/07/13 07:19:28;;;;;;;10.23;6.25;;;25.00;66.20;;;;;;5001112;28;20099;-75
2022/07/13 07:21:54;;;;;;;12.18;8.57;;;25.20;65.60;;;;;;5019969;28;20628;-74
2022/07/13 07:24:20;;;;;;;14.05;10.38;;;25.30;65.70;;;;;;4991243;28;20022;-73
2022/07/13 07:26:47;;;;;;;13.68;7.60;;;25.30;65.00;;;;;;5021687;28;20028;-75
2022/07/13 07:29:13;;;;;;;10.80;7.75;;;25.40;64.60;;;;;;5010007;28;20073;-75
2022/07/13 07:31:39;;;;;;;12.30;8.30;;;25.60;65.20;;;;;;5021967;28;20017;-74
2022/07/13 07:34:04;;;;;;;14.05;8.50;;;25.80;63.70;;;;;;5010191;28;20026;-74
2022/07/13 07:36:30;;;;;;;11.05;6.70;;;25.80;63.30;;;;;;5011833;28;20030;-75
2022/07/13 07:38:56;;;;;;;10.43;7.10;;;26.00;63.50;;;;;;5020180;28;20029;-75
2022/07/13 07:41:22;;;;;;;12.95;6.40;;;26.10;62.70;;;;;;5000247;28;20775;-77
2022/07/13 07:43:48;;;;;;;8.77;5.90;;;26.20;61.90;;;;;;5021813;28;20028;-77
2022/07/13 07:46:14;;;;;;;10.10;6.18;;;26.30;62.40;;;;;;5019206;28;20022;-79
2022/07/13 07:48:39;;;;;;;11.65;5.93;;;26.30;62.00;;;;;;5029696;28;20423;-76
2022/07/13 07:51:05;;;;;;;9.80;4.95;;;26.40;61.60;;;;;;5034135;28;20025;-76
2022/07/13 07:53:31;;;;;;;5.78;4.10;;;26.50;61.80;;;;;;5027326;28;20179;-79
2022/07/13 07:55:58;;;;;;;10.63;4.10;;;26.50;61.10;;;;;;5015490;28;20456;-78
2022/07/13 07:58:23;;;;;;;10.80;6.43;;;26.50;61.40;;;;;;5020137;28;20022;-77
2022/07/13 08:00:50;;;;;;;7.30;3.92;;;26.40;60.90;;;;;;5017763;28;20042;-77
2022/07/13 08:03:16;;;;;;;11.30;6.25;;;26.40;61.40;;;;;;5024386;28;20069;-77
2022/07/13 08:05:44;;;;;;;11.05;6.25;;;26.40;61.80;;;;;;5029138;28;20117;-77
2022/07/13 08:08:11;;;;;;;8.23;5.53;;;26.50;61.60;;;;;;5021046;28;20033;-78
2022/07/13 08:10:37;;;;;;;11.65;5.85;;;26.50;61.80;;;;;;5019573;28;20052;-77
2022/07/13 08:13:04;;;;;;;10.02;5.25;;;26.50;61.90;;;;;;5005097;28;20022;-77
2022/07/13 08:15:32;;;;;;;5.57;3.70;;;26.50;62.00;;;;;;5012606;28;20026;-75
2022/07/13 08:17:59;;;;;;;9.95;6.10;;;26.40;62.10;;;;;;5002573;28;20049;-77
2022/07/13 08:20:25;;;;;;;8.35;4.60;;;26.30;62.50;;;;;;5022734;28;20477;-77
2022/07/13 08:22:51;;;;;;;10.43;4.60;;;26.30;62.60;;;;;;5015461;28;20034;-76
2022/07/13 08:25:17;;;;;;;11.80;4.47;;;26.50;62.70;;;;;;5026664;28;20192;-77
2022/07/13 08:27:44;;;;;;;7.22;4.78;;;26.70;62.90;;;;;;5026578;28;20025;-77
2022/07/13 08:30:11;;;;;;;6.80;3.83;;;27.10;62.20;;;;;;5033863;28;20037;-77
2022/07/13 08:32:39;;;;;;;8.07;5.45;;;27.30;61.10;;;;;;5011060;28;20670;-77
2022/07/13 08:40:34;;;;;;;14.27;5.32;;;27.90;59.40;;;;;;5017205;28;20048;-77
2022/07/13 08:43:04;;;;;;;10.38;5.15;;;28.10;59.00;;;;;;5014063;28;20033;-77
2022/07/13 08:45:33;;;;;;;9.85;5.22;;;28.30;58.50;;;;;;5020066;28;20030;-75
2022/07/13 08:48:00;;;;;;;7.45;4.78;;;28.30;57.80;;;;;;5016868;28;20079;-78
2022/07/13 08:50:27;;;;;;;9.77;6.25;;;28.20;57.90;;;;;;5023937;28;20022;-78
2022/07/13 08:52:53;;;;;;;10.43;4.47;;;28.20;57.30;;;;;;5013672;28;20041;-81
2022/07/13 08:55:20;;;;;;;6.85;4.03;;;28.20;57.90;;;;;;5000993;28;20029;-76
2022/07/13 08:57:46;;;;;;;13.07;6.03;;;28.40;58.10;;;;;;5032275;28;20067;-77
2022/07/13 09:00:12;;;;;;;8.18;4.10;;;28.50;56.40;;;;;;5021610;28;20041;-78
2022/07/13 09:02:38;;;;;;;8.73;4.60;;;28.60;55.10;;;;;;5016414;28;20419;-76
2022/07/13 09:05:06;;;;;;;8.57;4.72;;;28.70;55.70;;;;;;5025728;28;20025;-76
2022/07/13 09:07:33;;;;;;;7.63;4.07;;;28.90;55.80;;;;;;5013418;28;20081;-76
2022/07/13 09:10:02;;;;;;;8.48;3.70;;;29.10;55.40;;;;;;5027797;28;20108;-76
2022/07/13 09:12:28;;;;;;;9.07;4.65;;;29.20;55.90;;;;;;5015140;28;20081;-79
2022/07/13 09:15:08;;;;;;;8.63;5.18;;;29.30;54.40;;;;;;5001171;28;20088;-76
2022/07/13 09:17:44;;;;;;;9.30;4.90;;;29.20;54.80;;;;;;5021372;28;20093;-80
2022/07/13 09:20:12;;;;;;;7.30;3.58;;;29.10;55.40;;;;;;5021021;28;20041;-76
2022/07/13 09:23:08;;;;;;;9.27;3.88;;;29.00;55.80;;;;;;5031878;28;20026;-77
2022/07/13 09:25:37;;;;;;;8.18;4.10;;;29.20;56.40;;;;;;5008284;28;20071;-76
2022/07/13 09:28:07;;;;;;;7.53;4.40;;;29.30;54.40;;;;;;5012852;28;20033;-76
2022/07/13 09:30:35;;;;;;;7.85;5.03;;;29.40;53.90;;;;;;5017615;28;20431;-77
2022/07/13 09:33:02;;;;;;;13.63;5.35;;;29.50;54.00;;;;;;5030643;28;20052;-76
2022/07/13 09:35:44;;;;;;;8.25;3.97;;;29.60;53.90;;;;;;5025052;28;20026;-78
2022/07/13 09:38:36;;;;;;;9.45;4.45;;;29.50;54.90;;;;;;5020900;28;20079;-75
2022/07/13 09:41:24;;;;;;;9.23;4.93;;;29.60;55.20;;;;;;5026462;28;20083;-76
2022/07/13 09:46:52;;;;;;;5.10;3.35;;;29.90;53.00;;;;;;5018506;28;20040;-78
2022/07/13 09:49:43;;;;;;;6.90;3.80;;;30.10;53.40;;;;;;5023672;28;20454;-77
2022/07/13 09:52:11;;;;;;;11.38;4.85;;;30.10;54.20;;;;;;5001559;28;20512;-74
2022/07/13 09:54:39;;;;;;;8.55;4.88;;;30.20;51.80;;;;;;5020457;28;20106;-76
2022/07/13 09:57:08;;;;;;;8.82;4.63;;;30.10;52.60;;;;;;5024246;28;20049;-76
2022/07/13 09:59:38;;;;;;;8.48;4.63;;;30.10;50.60;;;;;;5032189;28;20041;-77
2022/07/13 10:02:04;;;;;;;;;;;29.90;50.20;;;;;;5019571;28;20460;-76
2022/07/13 10:04:32;;;;;;;8.32;3.63;;;30.00;53.10;;;;;;5024668;28;19992;-76
2022/07/13 10:06:59;;;;;;;8.40;5.03;;;30.20;52.70;;;;;;5015088;28;20022;-77
2022/07/13 10:09:30;;;;;;;8.57;4.18;;;30.40;52.10;;;;;;5017812;28;20380;-75
2022/07/13 10:11:57;;;;;;;7.68;4.00;;;30.40;52.60;;;;;;5028507;28;20025;-76
2022/07/13 10:14:24;;;;;;;7.85;3.97;;;30.40;52.70;;;;;;5033589;28;20029;-76
2022/07/13 10:16:58;;;;;;;7.65;3.55;;;30.60;51.90;;;;;;5022034;28;20022;-75
2022/07/13 10:19:24;;;;;;;8.45;3.08;;;30.60;51.10;;;;;;5036625;28;20029;-76
2022/07/13 10:22:12;;;;;;;5.80;3.35;;;30.80;53.00;;;;;;5032592;28;20032;-78
2022/07/13 10:24:51;;;;;;;10.70;4.47;;;31.00;52.20;;;;;;5014228;28;20468;-75
2022/07/13 10:27:29;;;;;;;9.05;4.40;;;31.20;51.30;;;;;;5022901;28;20646;-79
2022/07/13 10:29:58;;;;;;;6.30;3.20;;;31.20;49.70;;;;;;5032236;28;20029;-77
2022/07/13 10:32:28;;;;;;;6.85;4.43;;;31.20;50.00;;;;;;5030724;28;20017;-79
2022/07/13 10:34:57;;;;;;;7.05;4.20;;;31.30;50.30;;;;;;5033309;28;20079;-80
2022/07/13 10:37:24;;;;;;;9.82;3.30;;;31.30;49.90;;;;;;5005736;28;20480;-76
2022/07/13 10:40:11;;;;;;;5.68;3.03;;;31.20;51.00;;;;;;5016478;28;20073;-76
2022/07/13 10:43:03;;;;;;;8.32;2.75;;;31.30;51.00;;;;;;5021632;28;20026;-77
2022/07/13 10:45:32;;;;;;;6.47;4.00;;;31.50;51.30;;;;;;5029018;28;20112;-76
2022/07/13 10:48:00;;;;;;;6.82;3.90;;;31.50;49.30;;;;;;5025858;28;20323;-76
2022/07/13 10:50:36;;;;;;;5.70;3.15;;;31.40;48.80;;;;;;5030106;28;20041;-77
2022/07/13 10:53:02;;;;;;;7.97;3.45;;;31.40;49.60;;;;;;5022524;28;20051;-76
2022/07/13 10:55:33;;;;;;;6.43;3.33;;;31.60;51.00;;;;;;5029531;28;20530;-76
2022/07/13 10:58:00;;;;;;;5.60;3.03;;;31.70;49.80;;;;;;5007483;28;20108;-77
2022/07/13 11:00:47;;;;;;;5.55;2.90;;;31.90;50.40;;;;;;5010537;28;20038;-77
2022/07/13 11:03:37;;;;;;;7.38;3.58;;;31.90;49.90;;;;;;5018565;28;20022;-73
2022/07/13 11:06:08;;;;;;;7.28;3.63;;;31.90;50.60;;;;;;5011947;28;20040;-74
2022/07/13 11:08:35;;;;;;;6.70;3.20;;;31.80;50.30;;;;;;5019311;28;20018;-74
2022/07/13 11:11:14;;;;;;;6.28;2.83;;;31.80;50.80;;;;;;4994860;28;20519;-74
2022/07/13 11:13:41;;;;;;;8.93;3.40;;;31.80;53.10;;;;;;5014712;28;20018;-74
2022/07/13 11:16:08;;;;;;;8.10;4.18;;;31.70;49.80;;;;;;5026728;28;20033;-74
2022/07/13 11:18:38;;;;;;;8.55;4.05;;;31.70;50.10;;;;;;5021266;28;20014;-76
2022/07/13 11:21:04;;;;;;;6.60;2.63;;;31.70;48.20;;;;;;5010401;28;20030;-75
2022/07/13 11:26:36;;;;;;;5.03;2.47;;;31.60;48.40;;;;;;5015609;28;20056;-74
2022/07/13 11:29:27;;;;;;;5.82;2.80;;;31.90;48.50;;;;;;5016736;28;20144;-75
2022/07/13 11:32:01;;;;;;;4.22;1.63;;;32.20;46.70;;;;;;5011366;28;20030;-74
2022/07/13 11:34:27;;;;;;;2.78;1.50;;;32.30;46.30;;;;;;5019132;28;20030;-75
2022/07/13 11:36:53;;;;;;;3.25;1.45;;;32.30;42.10;;;;;;5015038;28;20046;-74
2022/07/13 11:39:26;;;;;;;4.93;1.67;;;32.10;44.40;;;;;;5022328;28;20133;-73
2022/07/13 11:41:53;;;;;;;3.33;1.60;;;31.90;43.40;;;;;;5019002;28;20025;-75
2022/07/13 11:44:24;;;;;;;3.95;1.45;;;31.80;42.30;;;;;;5017616;28;20083;-76
2022/07/13 11:46:53;;;;;;;7.00;1.50;;;31.60;41.70;;;;;;5000233;28;20442;-73
2022/07/13 11:49:18;;;;;;;2.65;1.33;;;31.50;45.70;;;;;;5020581;28;20034;-74
2022/07/13 11:51:45;;;;;;;6.20;1.75;;;31.40;42.40;;;;;;5013766;28;20480;-75
2022/07/13 11:54:16;;;;;;;4.63;1.67;;;31.30;43.90;;;;;;5027493;28;20069;-74
2022/07/13 11:56:51;;;;;;;5.07;1.45;;;31.10;41.90;;;;;;5018683;28;20025;-76
2022/07/13 11:59:42;;;;;;;3.30;1.40;;;31.10;43.20;;;;;;5015488;28;20798;-74
2022/07/13 12:02:09;;;;;;;2.83;1.48;;;31.10;44.60;;;;;;5001149;28;20053;-74
2022/07/13 12:04:40;;;;;;;5.22;1.80;;;31.10;42.90;;;;;;5014882;28;20400;-74
2022/07/13 12:07:20;;;;;;;2.80;1.10;;;31.00;41.00;;;;;;5018649;28;20357;-75
2022/07/13 12:09:46;;;;;;;;;;;31.00;44.90;;;;;;5019273;28;20130;-75
2022/07/13 12:12:12;;;;;;;3.28;1.38;;;31.20;48.30;;;;;;5000106;28;20406;-75
2022/07/13 12:14:38;;;;;;;3.10;1.42;;;31.40;43.80;;;;;;4983596;28;20056;-74
2022/07/13 12:17:04;;;;;;;4.28;1.55;;;31.70;42.10;;;;;;5021027;28;20103;-75
2022/07/13 12:19:30;;;;;;;2.88;1.45;;;31.80;40.10;;;;;;5022665;28;20514;-75
2022/07/13 12:21:58;;;;;;;2.97;1.20;;;31.90;40.90;;;;;;5019359;28;20433;-74
2022/07/13 12:24:24;;;;;;;3.27;1.40;;;31.90;40.20;;;;;;5008681;28;20435;-75
2022/07/13 12:26:53;;;;;;;2.95;1.40;;;32.00;41.00;;;;;;5019330;28;20034;-75
2022/07/13 12:29:34;;;;;;;4.70;1.63;;;32.10;42.80;;;;;;5016645;28;20090;-73
2022/07/13 12:32:02;;;;;;;4.35;1.70;;;32.20;42.20;;;;;;5016136;28;20079;-76
2022/07/13 12:34:28;;;;;;;3.30;1.50;;;32.20;42.00;;;;;;5021534;28;20010;-73
2022/07/13 12:36:54;;;;;;;5.50;1.98;;;32.30;40.30;;;;;;5021692;28;20025;-75
2022/07/13 12:39:41;;;;;;;3.08;1.73;;;32.40;40.20;;;;;;5021233;28;20041;-75
2022/07/13 12:42:08;;;;;;;3.75;1.42;;;32.50;40.00;;;;;;5021156;28;20022;-74
2022/07/13 12:44:35;;;;;;;4.72;1.50;;;32.30;43.10;;;;;;5028617;28;20025;-73
2022/07/13 12:47:02;;;;;;;4.00;1.80;;;32.40;46.40;;;;;;5026641;28;20028;-75
2022/07/13 12:49:42;;;;;;;3.38;1.52;;;32.40;40.70;;;;;;5028525;28;20360;-74
2022/07/13 12:52:12;;;;;;;2.85;1.48;;;32.50;43.80;;;;;;5023165;28;20113;-74
2022/07/13 12:54:45;;;;;;;2.97;1.40;;;32.80;45.50;;;;;;5008850;28;20060;-74
2022/07/13 12:57:13;;;;;;;4.10;1.70;;;32.80;44.20;;;;;;5009708;28;20048;-75
2022/07/13 12:59:39;;;;;;;3.58;1.20;;;32.80;40.60;;;;;;5026635;28;20036;-74
2022/07/13 13:02:05;;;;;;;3.80;1.33;;;32.70;45.70;;;;;;5020805;28;20026;-74